DEDEA EDLW-ZZZZ

Flight info

Callsign DEDEA
Flight time N/A
Altitude
Route VFR
Aircraft DA40

Departure

Time 2026-04-29 16:55
Airport Dortmund Airport (EDLW)

Arrival

Time N/A
Airport ZZZZ
Time Latitude Longitude Altitude Speed Heading
2026-04-29 16:48 51.51219 7.60460 456 ft 0 kts 197°
2026-04-29 16:50 51.51217 7.60459 456 ft 2 kts 200°
2026-04-29 16:50 51.51221 7.60400 452 ft 14 kts 287°
2026-04-29 16:50 51.51206 7.60325 451 ft 9 kts 234°
2026-04-29 16:50 51.51157 7.60217 455 ft 7 kts 258°
2026-04-29 16:51 51.51198 7.60183 447 ft 11 kts 59°
2026-04-29 16:51 51.51243 7.60298 442 ft 13 kts 58°
2026-04-29 16:51 51.51299 7.60456 439 ft 21 kts 60°
2026-04-29 16:51 51.51369 7.60651 437 ft 18 kts 60°
2026-04-29 16:52 51.51430 7.60822 430 ft 17 kts 62°
2026-04-29 16:52 51.51481 7.60969 426 ft 13 kts 61°
2026-04-29 16:52 51.51532 7.61059 426 ft 11 kts 358°
2026-04-29 16:52 51.51577 7.61002 420 ft 5 kts 250°
2026-04-29 16:53 51.51564 7.60944 418 ft 6 kts 254°
2026-04-29 16:53 51.51542 7.60805 418 ft 19 kts 256°
2026-04-29 16:53 51.51526 7.60674 412 ft 0 kts 274°
2026-04-29 16:54 51.51561 7.60607 414 ft 13 kts 333°
2026-04-29 16:54 51.51626 7.60637 415 ft 11 kts 59°
2026-04-29 16:54 51.51765 7.61028 426 ft 64 kts 61°
2026-04-29 16:55 51.51972 7.61646 697 ft 59 kts 61°
2026-04-29 16:55 51.52169 7.62208 899 ft 59 kts 61°
2026-04-29 16:55 51.52418 7.62774 1094 ft 63 kts 44°
2026-04-29 16:55 51.52953 7.62869 1193 ft 92 kts
2026-04-29 16:56 51.53600 7.62686 1361 ft 101 kts 356°
2026-04-29 16:56 51.54064 7.62478 1420 ft 104 kts 356°
2026-04-29 16:56 51.54764 7.62111 1505 ft 109 kts 353°
2026-04-29 16:56 51.55515 7.61760 1492 ft 115 kts 354°
2026-04-29 16:57 51.56286 7.61370 1491 ft 116 kts 353°
2026-04-29 16:57 51.57055 7.60978 1557 ft 114 kts 352°
2026-04-29 16:57 51.57758 7.60675 1775 ft 97 kts 12°
2026-04-29 16:57 51.58406 7.60963 1861 ft 92 kts 27°
2026-04-29 16:58 51.59031 7.61267 1987 ft 98 kts 26°
2026-04-29 16:58 51.59713 7.61532 2051 ft 103 kts 18°
2026-04-29 16:58 51.60414 7.61668 2164 ft 99 kts 18°
2026-04-29 16:58 51.61069 7.61769 2345 ft 92 kts 16°
2026-04-29 16:59 51.61724 7.61906 2398 ft 97 kts 20°
2026-04-29 16:59 51.62418 7.62101 2383 ft 105 kts 20°
2026-04-29 16:59 51.63149 7.62267 2447 ft 107 kts 12°
2026-04-29 16:59 51.63893 7.62264 2456 ft 108 kts 12°
2026-04-29 17:00 51.64646 7.62303 2430 ft 111 kts 13°
2026-04-29 17:00 51.65426 7.62350 2397 ft 113 kts 12°
2026-04-29 17:00 51.66229 7.62397 2346 ft 116 kts 13°
2026-04-29 17:00 51.67037 7.62441 2259 ft 119 kts 11°
2026-04-29 17:01 51.67853 7.62502 2245 ft 115 kts 13°
2026-04-29 17:01 51.68631 7.62536 2345 ft 111 kts 12°
2026-04-29 17:01 51.69373 7.62539 2484 ft 99 kts 12°
2026-04-29 17:01 51.70061 7.62528 2561 ft 99 kts 11°
2026-04-29 17:02 51.70753 7.62513 2600 ft 100 kts 12°
2026-04-29 17:02 51.71455 7.62505 2707 ft 100 kts 12°
2026-04-29 17:02 51.72159 7.62495 2762 ft 101 kts 12°
2026-04-29 17:02 51.72859 7.62504 2816 ft 102 kts 12°
2026-04-29 17:03 51.73545 7.62515 2943 ft 98 kts 12°
2026-04-29 17:03 51.74269 7.62534 2920 ft 107 kts 12°
2026-04-29 17:03 51.75057 7.62582 2842 ft 114 kts 12°
2026-04-29 17:03 51.75853 7.62640 2809 ft 114 kts 12°
2026-04-29 17:04 51.76640 7.62706 2757 ft 114 kts 13°
2026-04-29 17:04 51.77443 7.62743 2700 ft 115 kts 12°
2026-04-29 17:04 51.78236 7.62764 2677 ft 114 kts 12°
2026-04-29 17:04 51.79033 7.62787 2608 ft 115 kts 12°
2026-04-29 17:05 51.79831 7.62812 2581 ft 114 kts 12°
2026-04-29 17:05 51.80628 7.62840 2543 ft 115 kts 12°
2026-04-29 17:05 51.81425 7.62870 2526 ft 114 kts 11°
2026-04-29 17:05 51.82222 7.62915 2517 ft 115 kts 12°
2026-04-29 17:06 51.83016 7.62978 2475 ft 115 kts 12°
2026-04-29 17:06 51.83804 7.63043 2465 ft 113 kts 12°
2026-04-29 17:06 51.84595 7.63089 2419 ft 114 kts 12°
2026-04-29 17:06 51.85386 7.63134 2400 ft 113 kts 12°
2026-04-29 17:07 51.86164 7.63163 2409 ft 111 kts 12°
2026-04-29 17:07 51.86944 7.63187 2383 ft 113 kts 11°
2026-04-29 17:07 51.87719 7.63218 2377 ft 112 kts 12°
2026-04-29 17:07 51.88499 7.63280 2404 ft 113 kts 12°
2026-04-29 17:08 51.89276 7.63333 2444 ft 111 kts 12°
2026-04-29 17:08 51.90043 7.63386 2495 ft 110 kts 12°
2026-04-29 17:08 51.90831 7.63446 2401 ft 117 kts 12°
2026-04-29 17:08 51.91651 7.63501 2352 ft 117 kts 12°
2026-04-29 17:09 51.92460 7.63538 2288 ft 117 kts 12°
2026-04-29 17:09 51.93283 7.63579 2218 ft 119 kts 12°
2026-04-29 17:09 51.94112 7.63620 2151 ft 120 kts 12°
2026-04-29 17:09 51.94936 7.63667 2118 ft 118 kts 12°
2026-04-29 17:10 51.95746 7.63705 2125 ft 115 kts 13°
2026-04-29 17:10 51.96541 7.63725 2125 ft 114 kts 12°
2026-04-29 17:10 51.97354 7.63734 2024 ft 118 kts 12°
2026-04-29 17:10 51.98160 7.63752 2047 ft 114 kts 12°
2026-04-29 17:11 51.98972 7.63757 1997 ft 118 kts 12°
2026-04-29 17:11 51.99797 7.63762 1951 ft 120 kts 12°
2026-04-29 17:11 52.00583 7.63750 2070 ft 111 kts 12°
2026-04-29 17:11 52.01345 7.63737 2177 ft 108 kts 12°
2026-04-29 17:12 52.02124 7.63757 2154 ft 114 kts 12°
2026-04-29 17:12 52.02909 7.63779 2200 ft 110 kts 12°
2026-04-29 17:12 52.03571 7.64155 2164 ft 103 kts 48°
2026-04-29 17:12 52.03920 7.64666 2192 ft 100 kts 49°
2026-04-29 17:13 52.04574 7.65723 2231 ft 99 kts 58°
2026-04-29 17:13 52.05026 7.66593 2199 ft 103 kts 56°
2026-04-29 17:13 52.05605 7.67328 2153 ft 111 kts 28°
2026-04-29 17:13 52.06483 7.67168 1739 ft 143 kts 342°
2026-04-29 17:14 52.07372 7.66464 1513 ft 141 kts 344°
2026-04-29 17:14 52.08265 7.65950 1406 ft 131 kts 353°
2026-04-29 17:14 52.09131 7.65564 1381 ft 128 kts 353°
2026-04-29 17:14 52.09983 7.65150 1325 ft 131 kts 351°
2026-04-29 17:15 52.10853 7.64716 1195 ft 132 kts 349°
2026-04-29 17:15 52.11618 7.64271 976 ft 104 kts 349°
2026-04-29 17:15 52.12359 7.64254 779 ft 112 kts 34°
2026-04-29 17:15 52.12796 7.65238 552 ft 106 kts 64°
2026-04-29 17:16 52.13027 7.66345 355 ft 100 kts 70°
2026-04-29 17:16 52.13228 7.67326 162 ft 80 kts 71°